sensor_id;sensor_type;location;lat;lon;timestamp;P1;durP1;ratioP1;P2;durP2;ratioP2
35977;SDS011;22056;0.000;0.000;2023-07-16T00:00:32;0.60;;;0.60;;
35977;SDS011;22056;0.000;0.000;2023-07-16T00:02:59;0.50;;;0.50;;
35977;SDS011;22056;0.000;0.000;2023-07-16T00:05:25;0.60;;;0.50;;
35977;SDS011;22056;0.000;0.000;2023-07-16T00:07:51;0.70;;;0.70;;
35977;SDS011;22056;0.000;0.000;2023-07-16T00:10:17;0.75;;;0.60;;
35977;SDS011;22056;0.000;0.000;2023-07-16T00:12:43;0.50;;;0.50;;
35977;SDS011;22056;0.000;0.000;2023-07-16T00:15:09;0.50;;;0.50;;
35977;SDS011;22056;0.000;0.000;2023-07-16T00:17:35;0.75;;;0.57;;
35977;SDS011;22056;0.000;0.000;2023-07-16T00:20:02;0.52;;;0.52;;
35977;SDS011;22056;0.000;0.000;2023-07-16T00:22:29;0.50;;;0.47;;
35977;SDS011;22056;0.000;0.000;2023-07-16T00:24:55;0.60;;;0.60;;
35977;SDS011;22056;0.000;0.000;2023-07-16T00:27:21;0.95;;;0.45;;
35977;SDS011;22056;0.000;0.000;2023-07-16T00:29:48;0.43;;;0.43;;
35977;SDS011;22056;0.000;0.000;2023-07-16T00:32:14;0.50;;;0.50;;
35977;SDS011;22056;0.000;0.000;2023-07-16T00:34:40;0.68;;;0.60;;
35977;SDS011;22056;0.000;0.000;2023-07-16T00:37:06;0.80;;;0.65;;
35977;SDS011;22056;0.000;0.000;2023-07-16T00:39:32;0.57;;;0.57;;
35977;SDS011;22056;0.000;0.000;2023-07-16T00:41:58;0.68;;;0.50;;
35977;SDS011;22056;0.000;0.000;2023-07-16T00:44:24;0.65;;;0.60;;
35977;SDS011;22056;0.000;0.000;2023-07-16T00:46:50;0.68;;;0.60;;
35977;SDS011;22056;0.000;0.000;2023-07-16T00:49:17;0.50;;;0.50;;
35977;SDS011;22056;0.000;0.000;2023-07-16T00:51:43;0.60;;;0.60;;
35977;SDS011;22056;0.000;0.000;2023-07-16T00:54:09;1.20;;;0.50;;
35977;SDS011;22056;0.000;0.000;2023-07-16T00:56:36;0.60;;;0.60;;
35977;SDS011;22056;0.000;0.000;2023-07-16T00:59:03;0.50;;;0.50;;
35977;SDS011;22056;0.000;0.000;2023-07-16T01:01:29;0.60;;;0.60;;
35977;SDS011;22056;0.000;0.000;2023-07-16T01:03:55;0.55;;;0.50;;
35977;SDS011;22056;0.000;0.000;2023-07-16T01:06:33;0.50;;;0.50;;
35977;SDS011;22056;0.000;0.000;2023-07-16T01:09:03;0.50;;;0.50;;
35977;SDS011;22056;0.000;0.000;2023-07-16T01:11:32;0.60;;;0.60;;
35977;SDS011;22056;0.000;0.000;2023-07-16T01:14:00;0.68;;;0.68;;
35977;SDS011;22056;0.000;0.000;2023-07-16T01:16:27;0.52;;;0.50;;
35977;SDS011;22056;0.000;0.000;2023-07-16T01:18:53;0.60;;;0.60;;
35977;SDS011;22056;0.000;0.000;2023-07-16T01:21:21;0.50;;;0.50;;
35977;SDS011;22056;0.000;0.000;2023-07-16T01:32:01;0.60;;;0.60;;
35977;SDS011;22056;0.000;0.000;2023-07-16T01:34:29;1.08;;;0.60;;
35977;SDS011;22056;0.000;0.000;2023-07-16T01:36:58;0.50;;;0.50;;
35977;SDS011;22056;0.000;0.000;2023-07-16T01:39:25;1.85;;;0.60;;
35977;SDS011;22056;0.000;0.000;2023-07-16T01:41:51;0.50;;;0.50;;
35977;SDS011;22056;0.000;0.000;2023-07-16T01:44:17;0.50;;;0.50;;
35977;SDS011;22056;0.000;0.000;2023-07-16T01:46:43;0.90;;;0.60;;
35977;SDS011;22056;0.000;0.000;2023-07-16T01:49:09;0.50;;;0.50;;
35977;SDS011;22056;0.000;0.000;2023-07-16T01:51:36;0.60;;;0.52;;
35977;SDS011;22056;0.000;0.000;2023-07-16T01:54:02;0.70;;;0.52;;
35977;SDS011;22056;0.000;0.000;2023-07-16T01:56:28;0.60;;;0.60;;
35977;SDS011;22056;0.000;0.000;2023-07-16T01:58:54;0.50;;;0.50;;
35977;SDS011;22056;0.000;0.000;2023-07-16T02:01:20;0.65;;;0.60;;
35977;SDS011;22056;0.000;0.000;2023-07-16T02:03:47;0.50;;;0.50;;
35977;SDS011;22056;0.000;0.000;2023-07-16T02:06:13;0.50;;;0.50;;
35977;SDS011;22056;0.000;0.000;2023-07-16T02:08:39;0.73;;;0.60;;
35977;SDS011;22056;0.000;0.000;2023-07-16T02:11:05;0.60;;;0.60;;
35977;SDS011;22056;0.000;0.000;2023-07-16T02:13:31;0.52;;;0.52;;
35977;SDS011;22056;0.000;0.000;2023-07-16T02:15:57;0.70;;;0.60;;
35977;SDS011;22056;0.000;0.000;2023-07-16T02:18:23;0.68;;;0.60;;
35977;SDS011;22056;0.000;0.000;2023-07-16T02:20:50;0.40;;;0.40;;
35977;SDS011;22056;0.000;0.000;2023-07-16T02:23:16;0.45;;;0.45;;
35977;SDS011;22056;0.000;0.000;2023-07-16T02:25:42;0.50;;;0.50;;
35977;SDS011;22056;0.000;0.000;2023-07-16T02:28:08;0.82;;;0.50;;
35977;SDS011;22056;0.000;0.000;2023-07-16T02:30:34;0.60;;;0.40;;
35977;SDS011;22056;0.000;0.000;2023-07-16T02:33:00;0.50;;;0.50;;
35977;SDS011;22056;0.000;0.000;2023-07-16T02:35:26;0.90;;;0.40;;
35977;SDS011;22056;0.000;0.000;2023-07-16T02:37:52;0.50;;;0.47;;
35977;SDS011;22056;0.000;0.000;2023-07-16T02:40:20;0.32;;;0.32;;
35977;SDS011;22056;0.000;0.000;2023-07-16T02:42:46;0.50;;;0.50;;
35977;SDS011;22056;0.000;0.000;2023-07-16T02:45:12;0.80;;;0.30;;
35977;SDS011;22056;0.000;0.000;2023-07-16T02:47:38;0.38;;;0.30;;
35977;SDS011;22056;0.000;0.000;2023-07-16T02:50:04;0.70;;;0.50;;
35977;SDS011;22056;0.000;0.000;2023-07-16T02:52:30;0.50;;;0.40;;
35977;SDS011;22056;0.000;0.000;2023-07-16T02:54:56;0.40;;;0.40;;
35977;SDS011;22056;0.000;0.000;2023-07-16T02:57:23;0.40;;;0.40;;
35977;SDS011;22056;0.000;0.000;2023-07-16T02:59:49;0.75;;;0.40;;
35977;SDS011;22056;0.000;0.000;2023-07-16T03:02:15;0.50;;;0.50;;
35977;SDS011;22056;0.000;0.000;2023-07-16T03:04:41;0.40;;;0.40;;
35977;SDS011;22056;0.000;0.000;2023-07-16T03:07:07;0.50;;;0.50;;
35977;SDS011;22056;0.000;0.000;2023-07-16T03:09:33;0.40;;;0.40;;
35977;SDS011;22056;0.000;0.000;2023-07-16T03:11:59;0.40;;;0.38;;
35977;SDS011;22056;0.000;0.000;2023-07-16T03:14:26;0.40;;;0.40;;
35977;SDS011;22056;0.000;0.000;2023-07-16T03:16:52;0.43;;;0.40;;
35977;SDS011;22056;0.000;0.000;2023-07-16T03:19:18;0.40;;;0.40;;
35977;SDS011;22056;0.000;0.000;2023-07-16T03:21:44;0.40;;;0.40;;
35977;SDS011;22056;0.000;0.000;2023-07-16T03:24:11;0.32;;;0.32;;
35977;SDS011;22056;0.000;0.000;2023-07-16T03:26:37;0.50;;;0.50;;
35977;SDS011;22056;0.000;0.000;2023-07-16T03:29:03;0.43;;;0.43;;
35977;SDS011;22056;0.000;0.000;2023-07-16T03:31:29;0.32;;;0.30;;
35977;SDS011;22056;0.000;0.000;2023-07-16T03:33:55;0.40;;;0.40;;
35977;SDS011;22056;0.000;0.000;2023-07-16T03:36:22;0.30;;;0.30;;
35977;SDS011;22056;0.000;0.000;2023-07-16T03:38:48;0.73;;;0.50;;
35977;SDS011;22056;0.000;0.000;2023-07-16T03:41:14;0.70;;;0.40;;
35977;SDS011;22056;0.000;0.000;2023-07-16T03:43:40;0.60;;;0.60;;
35977;SDS011;22056;0.000;0.000;2023-07-16T03:46:06;0.40;;;0.40;;
35977;SDS011;22056;0.000;0.000;2023-07-16T03:48:33;0.40;;;0.40;;
35977;SDS011;22056;0.000;0.000;2023-07-16T03:50:59;0.63;;;0.43;;
35977;SDS011;22056;0.000;0.000;2023-07-16T03:53:25;0.50;;;0.50;;
35977;SDS011;22056;0.000;0.000;2023-07-16T03:55:51;0.40;;;0.40;;
35977;SDS011;22056;0.000;0.000;2023-07-16T03:58:17;0.40;;;0.40;;
35977;SDS011;22056;0.000;0.000;2023-07-16T04:00:44;0.40;;;0.40;;
35977;SDS011;22056;0.000;0.000;2023-07-16T04:03:10;0.40;;;0.40;;
35977;SDS011;22056;0.000;0.000;2023-07-16T04:05:36;0.40;;;0.40;;
35977;SDS011;22056;0.000;0.000;2023-07-16T04:08:02;0.30;;;0.30;;
35977;SDS011;22056;0.000;0.000;2023-07-16T04:10:28;1.05;;;0.50;;
35977;SDS011;22056;0.000;0.000;2023-07-16T04:12:54;0.55;;;0.43;;
35977;SDS011;22056;0.000;0.000;2023-07-16T04:15:20;0.32;;;0.32;;
35977;SDS011;22056;0.000;0.000;2023-07-16T04:17:46;0.32;;;0.32;;
35977;SDS011;22056;0.000;0.000;2023-07-16T04:20:12;0.40;;;0.40;;
35977;SDS011;22056;0.000;0.000;2023-07-16T04:22:38;0.40;;;0.40;;
35977;SDS011;22056;0.000;0.000;2023-07-16T04:25:05;0.40;;;0.40;;
35977;SDS011;22056;0.000;0.000;2023-07-16T04:27:31;0.70;;;0.55;;
35977;SDS011;22056;0.000;0.000;2023-07-16T04:29:57;0.52;;;0.40;;
35977;SDS011;22056;0.000;0.000;2023-07-16T04:32:23;0.45;;;0.43;;
35977;SDS011;22056;0.000;0.000;2023-07-16T04:34:49;0.70;;;0.60;;
35977;SDS011;22056;0.000;0.000;2023-07-16T04:37:15;0.55;;;0.40;;
35977;SDS011;22056;0.000;0.000;2023-07-16T04:39:41;0.77;;;0.50;;
35977;SDS011;22056;0.000;0.000;2023-07-16T04:42:07;0.65;;;0.60;;
35977;SDS011;22056;0.000;0.000;2023-07-16T04:44:33;0.40;;;0.40;;
35977;SDS011;22056;0.000;0.000;2023-07-16T04:47:00;0.50;;;0.40;;
35977;SDS011;22056;0.000;0.000;2023-07-16T04:49:26;0.50;;;0.50;;
35977;SDS011;22056;0.000;0.000;2023-07-16T04:51:52;0.60;;;0.57;;
35977;SDS011;22056;0.000;0.000;2023-07-16T04:54:18;0.50;;;0.50;;
35977;SDS011;22056;0.000;0.000;2023-07-16T04:56:44;0.75;;;0.60;;
35977;SDS011;22056;0.000;0.000;2023-07-16T04:59:10;0.57;;;0.47;;
35977;SDS011;22056;0.000;0.000;2023-07-16T05:01:36;0.80;;;0.50;;
35977;SDS011;22056;0.000;0.000;2023-07-16T05:04:02;0.75;;;0.60;;
35977;SDS011;22056;0.000;0.000;2023-07-16T05:06:28;0.50;;;0.50;;
35977;SDS011;22056;0.000;0.000;2023-07-16T05:08:54;0.80;;;0.60;;
35977;SDS011;22056;0.000;0.000;2023-07-16T05:11:21;1.25;;;0.60;;
35977;SDS011;22056;0.000;0.000;2023-07-16T05:13:47;0.60;;;0.57;;
35977;SDS011;22056;0.000;0.000;2023-07-16T05:16:13;1.20;;;0.60;;
35977;SDS011;22056;0.000;0.000;2023-07-16T05:18:39;0.70;;;0.68;;
35977;SDS011;22056;0.000;0.000;2023-07-16T05:21:05;1.27;;;0.68;;
35977;SDS011;22056;0.000;0.000;2023-07-16T05:23:31;1.58;;;0.52;;
35977;SDS011;22056;0.000;0.000;2023-07-16T05:25:57;0.88;;;0.50;;
35977;SDS011;22056;0.000;0.000;2023-07-16T05:28:23;0.70;;;0.50;;
35977;SDS011;22056;0.000;0.000;2023-07-16T05:30:59;0.70;;;0.50;;
35977;SDS011;22056;0.000;0.000;2023-07-16T05:33:25;0.70;;;0.60;;
35977;SDS011;22056;0.000;0.000;2023-07-16T05:35:52;1.83;;;0.80;;
35977;SDS011;22056;0.000;0.000;2023-07-16T05:38:18;0.40;;;0.40;;
35977;SDS011;22056;0.000;0.000;2023-07-16T05:40:44;0.50;;;0.50;;
35977;SDS011;22056;0.000;0.000;2023-07-16T05:43:10;0.85;;;0.50;;
35977;SDS011;22056;0.000;0.000;2023-07-16T05:45:36;0.60;;;0.50;;
35977;SDS011;22056;0.000;0.000;2023-07-16T05:48:03;0.60;;;0.60;;
35977;SDS011;22056;0.000;0.000;2023-07-16T05:50:29;0.45;;;0.45;;
35977;SDS011;22056;0.000;0.000;2023-07-16T05:52:55;0.60;;;0.60;;
35977;SDS011;22056;0.000;0.000;2023-07-16T05:55:21;0.75;;;0.50;;
35977;SDS011;22056;0.000;0.000;2023-07-16T05:57:47;0.40;;;0.40;;
35977;SDS011;22056;0.000;0.000;2023-07-16T06:00:13;0.43;;;0.43;;
35977;SDS011;22056;0.000;0.000;2023-07-16T06:02:40;0.80;;;0.70;;
35977;SDS011;22056;0.000;0.000;2023-07-16T06:05:06;0.40;;;0.40;;
35977;SDS011;22056;0.000;0.000;2023-07-16T06:07:32;0.90;;;0.45;;
35977;SDS011;22056;0.000;0.000;2023-07-16T06:09:58;0.77;;;0.50;;
35977;SDS011;22056;0.000;0.000;2023-07-16T06:12:24;0.68;;;0.60;;
35977;SDS011;22056;0.000;0.000;2023-07-16T06:14:50;0.60;;;0.60;;
35977;SDS011;22056;0.000;0.000;2023-07-16T06:17:17;0.70;;;0.50;;
35977;SDS011;22056;0.000;0.000;2023-07-16T06:19:43;0.50;;;0.50;;
35977;SDS011;22056;0.000;0.000;2023-07-16T06:22:09;0.73;;;0.63;;
35977;SDS011;22056;0.000;0.000;2023-07-16T06:24:35;0.60;;;0.60;;
35977;SDS011;22056;0.000;0.000;2023-07-16T06:27:01;1.85;;;0.60;;
35977;SDS011;22056;0.000;0.000;2023-07-16T06:29:27;0.50;;;0.50;;
35977;SDS011;22056;0.000;0.000;2023-07-16T06:31:54;0.60;;;0.60;;
35977;SDS011;22056;0.000;0.000;2023-07-16T06:34:21;1.50;;;0.90;;
35977;SDS011;22056;0.000;0.000;2023-07-16T06:36:48;0.63;;;0.60;;
35977;SDS011;22056;0.000;0.000;2023-07-16T06:39:14;0.98;;;0.60;;
35977;SDS011;22056;0.000;0.000;2023-07-16T06:41:40;1.00;;;0.60;;
35977;SDS011;22056;0.000;0.000;2023-07-16T06:44:06;0.60;;;0.60;;
35977;SDS011;22056;0.000;0.000;2023-07-16T06:46:32;2.35;;;0.95;;
35977;SDS011;22056;0.000;0.000;2023-07-16T06:48:58;0.80;;;0.65;;
35977;SDS011;22056;0.000;0.000;2023-07-16T06:51:24;1.05;;;0.88;;
35977;SDS011;22056;0.000;0.000;2023-07-16T06:53:51;2.00;;;0.98;;
35977;SDS011;22056;0.000;0.000;2023-07-16T06:56:17;1.77;;;0.90;;
35977;SDS011;22056;0.000;0.000;2023-07-16T06:58:43;2.05;;;1.00;;
35977;SDS011;22056;0.000;0.000;2023-07-16T07:01:09;0.90;;;0.80;;
35977;SDS011;22056;0.000;0.000;2023-07-16T07:03:35;1.38;;;0.93;;
35977;SDS011;22056;0.000;0.000;2023-07-16T07:06:02;1.63;;;1.05;;
35977;SDS011;22056;0.000;0.000;2023-07-16T07:08:29;1.85;;;1.05;;
35977;SDS011;22056;0.000;0.000;2023-07-16T07:10:55;1.55;;;1.00;;
35977;SDS011;22056;0.000;0.000;2023-07-16T07:13:21;1.58;;;1.05;;
35977;SDS011;22056;0.000;0.000;2023-07-16T07:15:48;2.45;;;1.08;;
35977;SDS011;22056;0.000;0.000;2023-07-16T07:18:14;1.02;;;0.90;;
35977;SDS011;22056;0.000;0.000;2023-07-16T07:20:40;1.17;;;1.08;;
35977;SDS011;22056;0.000;0.000;2023-07-16T07:23:06;1.77;;;1.23;;
35977;SDS011;22056;0.000;0.000;2023-07-16T07:25:32;1.67;;;0.95;;
35977;SDS011;22056;0.000;0.000;2023-07-16T07:27:59;2.15;;;1.40;;
35977;SDS011;22056;0.000;0.000;2023-07-16T07:30:25;1.35;;;0.85;;
35977;SDS011;22056;0.000;0.000;2023-07-16T07:32:51;1.17;;;0.80;;
35977;SDS011;22056;0.000;0.000;2023-07-16T07:35:17;1.55;;;0.93;;
35977;SDS011;22056;0.000;0.000;2023-07-16T07:37:43;1.08;;;0.98;;
35977;SDS011;22056;0.000;0.000;2023-07-16T07:40:10;1.55;;;0.90;;
35977;SDS011;22056;0.000;0.000;2023-07-16T07:42:36;1.48;;;0.95;;
35977;SDS011;22056;0.000;0.000;2023-07-16T07:45:02;1.10;;;1.00;;
35977;SDS011;22056;0.000;0.000;2023-07-16T07:47:28;2.85;;;1.00;;
35977;SDS011;22056;0.000;0.000;2023-07-16T07:49:54;2.20;;;1.20;;
35977;SDS011;22056;0.000;0.000;2023-07-16T07:52:21;1.88;;;1.08;;
35977;SDS011;22056;0.000;0.000;2023-07-16T07:54:47;1.83;;;1.20;;
35977;SDS011;22056;0.000;0.000;2023-07-16T07:57:14;1.42;;;1.20;;
35977;SDS011;22056;0.000;0.000;2023-07-16T07:59:40;1.73;;;1.10;;
35977;SDS011;22056;0.000;0.000;2023-07-16T08:02:06;2.28;;;1.30;;
35977;SDS011;22056;0.000;0.000;2023-07-16T08:04:32;1.80;;;1.40;;
35977;SDS011;22056;0.000;0.000;2023-07-16T08:06:58;1.33;;;0.82;;
35977;SDS011;22056;0.000;0.000;2023-07-16T08:09:25;0.90;;;0.55;;
35977;SDS011;22056;0.000;0.000;2023-07-16T08:11:52;0.88;;;0.80;;
35977;SDS011;22056;0.000;0.000;2023-07-16T08:14:18;1.00;;;0.80;;
35977;SDS011;22056;0.000;0.000;2023-07-16T08:16:44;1.15;;;0.85;;
35977;SDS011;22056;0.000;0.000;2023-07-16T08:19:10;1.55;;;1.10;;
35977;SDS011;22056;0.000;0.000;2023-07-16T08:21:36;1.10;;;1.00;;
35977;SDS011;22056;0.000;0.000;2023-07-16T08:24:04;1.10;;;0.88;;
35977;SDS011;22056;0.000;0.000;2023-07-16T08:26:30;1.25;;;1.13;;
35977;SDS011;22056;0.000;0.000;2023-07-16T08:28:56;1.52;;;1.17;;
35977;SDS011;22056;0.000;0.000;2023-07-16T08:31:22;1.73;;;1.20;;
35977;SDS011;22056;0.000;0.000;2023-07-16T08:33:48;2.00;;;1.60;;
35977;SDS011;22056;0.000;0.000;2023-07-16T08:36:15;1.40;;;1.30;;
35977;SDS011;22056;0.000;0.000;2023-07-16T08:38:41;2.28;;;1.65;;
35977;SDS011;22056;0.000;0.000;2023-07-16T08:41:07;1.48;;;1.23;;
35977;SDS011;22056;0.000;0.000;2023-07-16T08:43:33;1.83;;;1.33;;
35977;SDS011;22056;0.000;0.000;2023-07-16T08:46:00;2.33;;;1.45;;
35977;SDS011;22056;0.000;0.000;2023-07-16T08:48:28;1.60;;;1.30;;
35977;SDS011;22056;0.000;0.000;2023-07-16T08:50:54;2.30;;;1.65;;
35977;SDS011;22056;0.000;0.000;2023-07-16T08:53:21;1.50;;;1.40;;
35977;SDS011;22056;0.000;0.000;2023-07-16T08:55:47;2.38;;;1.42;;
35977;SDS011;22056;0.000;0.000;2023-07-16T08:58:13;1.55;;;1.30;;
35977;SDS011;22056;0.000;0.000;2023-07-16T09:00:43;1.60;;;1.48;;
35977;SDS011;22056;0.000;0.000;2023-07-16T09:03:13;2.45;;;1.65;;
35977;SDS011;22056;0.000;0.000;2023-07-16T09:05:41;1.85;;;1.30;;
35977;SDS011;22056;0.000;0.000;2023-07-16T09:08:08;2.25;;;1.38;;
35977;SDS011;22056;0.000;0.000;2023-07-16T09:10:34;2.30;;;1.50;;
35977;SDS011;22056;0.000;0.000;2023-07-16T09:13:00;1.38;;;1.05;;
35977;SDS011;22056;0.000;0.000;2023-07-16T09:15:27;2.78;;;1.27;;
35977;SDS011;22056;0.000;0.000;2023-07-16T09:17:53;1.40;;;1.30;;
35977;SDS011;22056;0.000;0.000;2023-07-16T09:20:20;1.35;;;1.23;;
35977;SDS011;22056;0.000;0.000;2023-07-16T09:22:48;2.05;;;1.40;;
35977;SDS011;22056;0.000;0.000;2023-07-16T09:25:15;2.08;;;1.30;;
35977;SDS011;22056;0.000;0.000;2023-07-16T09:27:42;1.40;;;1.30;;
35977;SDS011;22056;0.000;0.000;2023-07-16T09:30:14;1.27;;;1.17;;
35977;SDS011;22056;0.000;0.000;2023-07-16T09:32:40;1.20;;;1.00;;
35977;SDS011;22056;0.000;0.000;2023-07-16T09:35:09;1.58;;;1.08;;
35977;SDS011;22056;0.000;0.000;2023-07-16T09:37:36;1.92;;;1.20;;
35977;SDS011;22056;0.000;0.000;2023-07-16T09:40:03;1.73;;;1.38;;
35977;SDS011;22056;0.000;0.000;2023-07-16T09:42:31;1.70;;;1.20;;
35977;SDS011;22056;0.000;0.000;2023-07-16T09:44:59;1.67;;;1.10;;
35977;SDS011;22056;0.000;0.000;2023-07-16T09:47:27;1.75;;;1.20;;
35977;SDS011;22056;0.000;0.000;2023-07-16T09:49:53;1.27;;;1.00;;
35977;SDS011;22056;0.000;0.000;2023-07-16T09:52:19;1.52;;;0.90;;
35977;SDS011;22056;0.000;0.000;2023-07-16T09:54:45;1.95;;;1.30;;
35977;SDS011;22056;0.000;0.000;2023-07-16T09:57:12;1.63;;;1.25;;
35977;SDS011;22056;0.000;0.000;2023-07-16T09:59:40;1.20;;;1.08;;
35977;SDS011;22056;0.000;0.000;2023-07-16T10:02:06;1.67;;;1.30;;
35977;SDS011;22056;0.000;0.000;2023-07-16T10:04:39;2.47;;;1.17;;
35977;SDS011;22056;0.000;0.000;2023-07-16T10:09:40;1.40;;;1.17;;
35977;SDS011;22056;0.000;0.000;2023-07-16T10:12:16;1.55;;;1.25;;
35977;SDS011;22056;0.000;0.000;2023-07-16T10:14:47;1.77;;;1.20;;
35977;SDS011;22056;0.000;0.000;2023-07-16T10:17:14;1.90;;;1.02;;
35977;SDS011;22056;0.000;0.000;2023-07-16T10:19:47;1.92;;;1.20;;
35977;SDS011;22056;0.000;0.000;2023-07-16T10:22:13;1.70;;;1.20;;
35977;SDS011;22056;0.000;0.000;2023-07-16T10:24:40;1.38;;;1.20;;
35977;SDS011;22056;0.000;0.000;2023-07-16T10:27:06;2.17;;;1.15;;
35977;SDS011;22056;0.000;0.000;2023-07-16T10:29:32;1.40;;;1.20;;
35977;SDS011;22056;0.000;0.000;2023-07-16T10:32:01;1.67;;;1.20;;
35977;SDS011;22056;0.000;0.000;2023-07-16T10:34:28;1.10;;;1.00;;
35977;SDS011;22056;0.000;0.000;2023-07-16T10:36:54;1.73;;;1.10;;
35977;SDS011;22056;0.000;0.000;2023-07-16T10:39:20;1.33;;;1.10;;
35977;SDS011;22056;0.000;0.000;2023-07-16T10:41:46;1.85;;;1.15;;
35977;SDS011;22056;0.000;0.000;2023-07-16T10:44:13;1.42;;;1.20;;
35977;SDS011;22056;0.000;0.000;2023-07-16T10:46:43;1.60;;;1.10;;
35977;SDS011;22056;0.000;0.000;2023-07-16T10:49:09;1.60;;;1.10;;
35977;SDS011;22056;0.000;0.000;2023-07-16T10:51:35;1.65;;;1.10;;
35977;SDS011;22056;0.000;0.000;2023-07-16T10:54:01;1.17;;;1.08;;
35977;SDS011;22056;0.000;0.000;2023-07-16T10:56:33;1.20;;;1.10;;
35977;SDS011;22056;0.000;0.000;2023-07-16T10:58:59;1.58;;;1.10;;
35977;SDS011;22056;0.000;0.000;2023-07-16T11:01:28;1.65;;;1.05;;
35977;SDS011;22056;0.000;0.000;2023-07-16T11:03:59;1.70;;;1.00;;
35977;SDS011;22056;0.000;0.000;2023-07-16T11:06:26;1.13;;;0.90;;
35977;SDS011;22056;0.000;0.000;2023-07-16T11:08:52;1.05;;;0.95;;
35977;SDS011;22056;0.000;0.000;2023-07-16T11:11:27;1.02;;;0.90;;
35977;SDS011;22056;0.000;0.000;2023-07-16T11:13:54;1.20;;;1.10;;
35977;SDS011;22056;0.000;0.000;2023-07-16T11:16:20;1.13;;;1.02;;
35977;SDS011;22056;0.000;0.000;2023-07-16T11:18:47;1.13;;;1.00;;
35977;SDS011;22056;0.000;0.000;2023-07-16T11:21:13;1.70;;;1.20;;
35977;SDS011;22056;0.000;0.000;2023-07-16T11:23:39;1.15;;;1.02;;
35977;SDS011;22056;0.000;0.000;2023-07-16T11:26:05;1.77;;;1.17;;
35977;SDS011;22056;0.000;0.000;2023-07-16T11:28:38;1.80;;;1.10;;
35977;SDS011;22056;0.000;0.000;2023-07-16T11:31:13;1.00;;;0.90;;
35977;SDS011;22056;0.000;0.000;2023-07-16T11:33:41;1.75;;;1.10;;
35977;SDS011;22056;0.000;0.000;2023-07-16T11:36:08;1.30;;;0.90;;
35977;SDS011;22056;0.000;0.000;2023-07-16T11:38:38;1.52;;;0.90;;
35977;SDS011;22056;0.000;0.000;2023-07-16T11:41:04;0.88;;;0.80;;
35977;SDS011;22056;0.000;0.000;2023-07-16T11:43:34;1.30;;;1.00;;
35977;SDS011;22056;0.000;0.000;2023-07-16T11:46:01;1.05;;;0.95;;
35977;SDS011;22056;0.000;0.000;2023-07-16T11:48:27;0.88;;;0.88;;
35977;SDS011;22056;0.000;0.000;2023-07-16T11:50:54;0.90;;;0.80;;
35977;SDS011;22056;0.000;0.000;2023-07-16T11:53:20;1.33;;;0.80;;
35977;SDS011;22056;0.000;0.000;2023-07-16T11:55:46;1.35;;;0.93;;
35977;SDS011;22056;0.000;0.000;2023-07-16T11:58:12;1.67;;;0.90;;
35977;SDS011;22056;0.000;0.000;2023-07-16T12:00:38;0.95;;;0.80;;
35977;SDS011;22056;0.000;0.000;2023-07-16T12:03:04;0.80;;;0.80;;
35977;SDS011;22056;0.000;0.000;2023-07-16T12:05:30;1.00;;;0.70;;
35977;SDS011;22056;0.000;0.000;2023-07-16T12:07:57;1.95;;;0.80;;
35977;SDS011;22056;0.000;0.000;2023-07-16T12:10:23;1.33;;;0.80;;
35977;SDS011;22056;0.000;0.000;2023-07-16T12:12:49;1.25;;;0.98;;
35977;SDS011;22056;0.000;0.000;2023-07-16T12:15:15;0.82;;;0.70;;
35977;SDS011;22056;0.000;0.000;2023-07-16T12:17:41;1.02;;;0.80;;
35977;SDS011;22056;0.000;0.000;2023-07-16T12:20:07;1.42;;;0.80;;
35977;SDS011;22056;0.000;0.000;2023-07-16T12:22:34;1.00;;;0.70;;
35977;SDS011;22056;0.000;0.000;2023-07-16T12:25:01;0.82;;;0.70;;
35977;SDS011;22056;0.000;0.000;2023-07-16T12:27:27;1.10;;;1.00;;
35977;SDS011;22056;0.000;0.000;2023-07-16T12:29:53;1.45;;;1.00;;
35977;SDS011;22056;0.000;0.000;2023-07-16T12:32:20;1.42;;;1.00;;
35977;SDS011;22056;0.000;0.000;2023-07-16T12:34:46;1.17;;;1.05;;
35977;SDS011;22056;0.000;0.000;2023-07-16T12:37:12;1.27;;;0.85;;
35977;SDS011;22056;0.000;0.000;2023-07-16T12:39:38;1.23;;;1.00;;
35977;SDS011;22056;0.000;0.000;2023-07-16T12:42:04;1.05;;;0.95;;
35977;SDS011;22056;0.000;0.000;2023-07-16T12:44:31;1.05;;;0.90;;
35977;SDS011;22056;0.000;0.000;2023-07-16T12:46:57;1.77;;;0.93;;
35977;SDS011;22056;0.000;0.000;2023-07-16T12:49:23;1.50;;;1.00;;
35977;SDS011;22056;0.000;0.000;2023-07-16T12:51:49;1.05;;;0.88;;
35977;SDS011;22056;0.000;0.000;2023-07-16T12:54:15;1.00;;;0.90;;
35977;SDS011;22056;0.000;0.000;2023-07-16T12:56:41;0.75;;;0.75;;
35977;SDS011;22056;0.000;0.000;2023-07-16T12:59:07;2.90;;;1.08;;
35977;SDS011;22056;0.000;0.000;2023-07-16T13:01:33;0.95;;;0.75;;
35977;SDS011;22056;0.000;0.000;2023-07-16T13:04:00;1.10;;;1.00;;
35977;SDS011;22056;0.000;0.000;2023-07-16T13:06:26;2.28;;;0.95;;
35977;SDS011;22056;0.000;0.000;2023-07-16T13:08:52;1.25;;;1.00;;
35977;SDS011;22056;0.000;0.000;2023-07-16T13:11:18;1.63;;;1.10;;
35977;SDS011;22056;0.000;0.000;2023-07-16T13:13:44;1.67;;;1.10;;
35977;SDS011;22056;0.000;0.000;2023-07-16T13:16:10;1.23;;;0.90;;
35977;SDS011;22056;0.000;0.000;2023-07-16T13:18:37;1.05;;;0.82;;
35977;SDS011;22056;0.000;0.000;2023-07-16T13:21:04;2.03;;;1.17;;
35977;SDS011;22056;0.000;0.000;2023-07-16T13:23:30;1.45;;;0.98;;
35977;SDS011;22056;0.000;0.000;2023-07-16T13:25:56;1.65;;;1.00;;
35977;SDS011;22056;0.000;0.000;2023-07-16T13:28:23;0.80;;;0.80;;
35977;SDS011;22056;0.000;0.000;2023-07-16T13:30:49;2.05;;;1.20;;
35977;SDS011;22056;0.000;0.000;2023-07-16T13:33:15;2.03;;;1.00;;
35977;SDS011;22056;0.000;0.000;2023-07-16T13:35:41;1.38;;;1.00;;
35977;SDS011;22056;0.000;0.000;2023-07-16T13:38:08;2.05;;;0.93;;
35977;SDS011;22056;0.000;0.000;2023-07-16T13:40:34;1.35;;;0.80;;
35977;SDS011;22056;0.000;0.000;2023-07-16T13:43:00;1.02;;;0.80;;
35977;SDS011;22056;0.000;0.000;2023-07-16T13:45:26;1.20;;;0.93;;
35977;SDS011;22056;0.000;0.000;2023-07-16T13:47:52;0.85;;;0.60;;
35977;SDS011;22056;0.000;0.000;2023-07-16T13:50:20;1.50;;;0.98;;
35977;SDS011;22056;0.000;0.000;2023-07-16T13:52:46;1.58;;;0.70;;
35977;SDS011;22056;0.000;0.000;2023-07-16T13:55:12;1.60;;;0.85;;
35977;SDS011;22056;0.000;0.000;2023-07-16T13:57:38;1.10;;;1.00;;
35977;SDS011;22056;0.000;0.000;2023-07-16T14:00:06;1.08;;;0.73;;
35977;SDS011;22056;0.000;0.000;2023-07-16T14:02:34;0.90;;;0.70;;
35977;SDS011;22056;0.000;0.000;2023-07-16T14:05:01;1.77;;;0.70;;
35977;SDS011;22056;0.000;0.000;2023-07-16T14:07:27;1.20;;;0.80;;
35977;SDS011;22056;0.000;0.000;2023-07-16T14:09:53;0.98;;;0.85;;
35977;SDS011;22056;0.000;0.000;2023-07-16T14:12:20;0.98;;;0.80;;
35977;SDS011;22056;0.000;0.000;2023-07-16T14:14:46;2.35;;;0.98;;
35977;SDS011;22056;0.000;0.000;2023-07-16T14:17:12;1.83;;;0.80;;
35977;SDS011;22056;0.000;0.000;2023-07-16T14:19:38;2.88;;;0.90;;
35977;SDS011;22056;0.000;0.000;2023-07-16T14:22:04;1.60;;;0.70;;
35977;SDS011;22056;0.000;0.000;2023-07-16T14:24:30;1.42;;;0.93;;
35977;SDS011;22056;0.000;0.000;2023-07-16T14:26:57;1.35;;;1.10;;
35977;SDS011;22056;0.000;0.000;2023-07-16T14:29:26;0.80;;;0.70;;
35977;SDS011;22056;0.000;0.000;2023-07-16T14:31:54;1.20;;;0.70;;
35977;SDS011;22056;0.000;0.000;2023-07-16T14:34:20;0.80;;;0.80;;
35977;SDS011;22056;0.000;0.000;2023-07-16T14:36:46;1.33;;;0.80;;
35977;SDS011;22056;0.000;0.000;2023-07-16T14:39:13;0.75;;;0.75;;
35977;SDS011;22056;0.000;0.000;2023-07-16T14:41:40;1.23;;;0.80;;
35977;SDS011;22056;0.000;0.000;2023-07-16T14:44:06;1.35;;;0.90;;
35977;SDS011;22056;0.000;0.000;2023-07-16T14:46:32;0.77;;;0.70;;
35977;SDS011;22056;0.000;0.000;2023-07-16T14:48:59;0.70;;;0.68;;
35977;SDS011;22056;0.000;0.000;2023-07-16T14:51:25;0.88;;;0.80;;
35977;SDS011;22056;0.000;0.000;2023-07-16T14:53:51;0.93;;;0.82;;
35977;SDS011;22056;0.000;0.000;2023-07-16T14:56:18;1.55;;;0.90;;
35977;SDS011;22056;0.000;0.000;2023-07-16T14:58:44;0.95;;;0.70;;
35977;SDS011;22056;0.000;0.000;2023-07-16T15:01:10;1.05;;;0.70;;
35977;SDS011;22056;0.000;0.000;2023-07-16T15:03:37;0.70;;;0.70;;
35977;SDS011;22056;0.000;0.000;2023-07-16T15:06:05;0.73;;;0.70;;